Time;durP1;ratioP1;P1;durP2;ratioP2;P2;SDS_P1;SDS_P2;PMS_P1;PMS_P2;Temp;Humidity;BMP_temperature;BMP_pressure;BME280_temperature;BME280_humidity;BME280_pressure;Samples;Min_cycle;Max_cycle;Signal;HPM_P1;HPM_P2
2023/09/13 00:01:41;;;;;;;7.63;4.10;;;21.70;65.90;;;20.91;84.08;95743.81;6017251;23;20086;-67
2023/09/13 00:04:06;;;;;;;4.88;3.63;;;21.70;67.20;;;20.91;82.37;95748.34;6065958;23;20029;-66
2023/09/13 00:06:32;;;;;;;3.78;3.17;;;21.70;64.90;;;20.93;80.11;95751.56;6064457;23;20015;-68
2023/09/13 00:08:58;;;;;;;6.03;3.38;;;21.70;63.80;;;20.94;79.21;95747.84;6090323;23;20011;-67
2023/09/13 00:11:24;;;;;;;7.00;2.60;;;21.70;64.20;;;20.93;78.29;95746.22;6088256;23;20018;-67
2023/09/13 00:13:50;;;;;;;4.32;2.63;;;21.60;62.90;;;20.93;77.94;95746.22;6041726;23;20014;-67
2023/09/13 00:16:15;;;;;;;4.07;2.90;;;21.70;63.20;;;20.94;77.46;95745.16;6041555;23;20049;-67
2023/09/13 00:18:41;;;;;;;3.20;2.45;;;21.80;63.40;;;20.95;76.60;95744.09;6064884;23;20022;-67
2023/09/13 00:21:08;;;;;;;3.75;2.45;;;21.70;62.00;;;20.94;76.50;95745.16;6088925;23;20019;-67
2023/09/13 00:23:34;;;;;;;3.15;2.20;;;21.70;62.90;;;20.91;76.13;95732.31;6088680;23;20049;-67
2023/09/13 00:26:00;;;;;;;4.90;2.30;;;21.60;62.50;;;20.88;75.09;95743.53;6089209;23;20014;-67
2023/09/13 00:28:26;;;;;;;3.28;2.20;;;21.60;61.60;;;20.86;75.13;95748.34;6064361;23;20045;-67
2023/09/13 00:30:51;;;;;;;4.53;2.60;;;21.60;62.70;;;20.81;75.93;95749.09;6040965;23;20022;-67
2023/09/13 00:33:17;;;;;;;3.88;2.70;;;21.60;63.10;;;20.77;75.46;95750.69;6088777;23;20074;-67
2023/09/13 00:35:43;;;;;;;4.38;2.70;;;21.50;63.30;;;20.72;76.13;95758.72;6064516;23;20031;-67
2023/09/13 00:38:08;;;;;;;6.50;3.33;;;21.40;63.70;;;20.65;76.90;95756.28;6065386;23;20010;-67
2023/09/13 00:40:34;;;;;;;4.75;2.65;;;21.30;64.30;;;20.59;77.37;95756.50;6090847;23;20352;-67
2023/09/13 00:43:00;;;;;;;4.25;3.10;;;21.20;64.80;;;20.53;77.90;95757.53;6088702;23;20480;-67
2023/09/13 00:45:27;;;;;;;6.88;3.20;;;21.20;65.30;;;20.48;79.20;95751.13;6088397;23;20077;-67
2023/09/13 00:47:53;;;;;;;5.47;3.05;;;21.20;65.80;;;20.40;80.07;95754.28;6038818;23;20045;-67
2023/09/13 00:50:19;;;;;;;6.68;3.60;;;21.10;66.10;;;20.36;80.75;95776.38;6065041;23;20388;-67
2023/09/13 00:52:45;;;;;;;7.18;4.40;;;21.10;67.00;;;20.31;81.37;95766.47;6088685;23;20081;-67
2023/09/13 00:55:11;;;;;;;5.75;4.10;;;21.00;67.30;;;20.26;81.86;95773.66;6088829;23;20030;-67
2023/09/13 00:57:36;;;;;;;6.35;4.28;;;21.00;67.50;;;20.18;83.33;95775.75;6040285;23;20022;-68
2023/09/13 01:00:09;;;;;;;6.22;3.92;;;20.90;67.80;;;20.16;83.58;95777.88;6088796;23;20089;-67
2023/09/13 01:02:38;;;;;;;7.18;4.57;;;20.90;68.10;;;20.11;84.78;95777.81;6064926;23;20006;-67
2023/09/13 01:05:08;;;;;;;5.60;4.20;;;20.80;68.60;;;20.07;85.13;95776.75;6065480;23;20140;-67
2023/09/13 01:07:34;;;;;;;;;;;20.80;68.50;;;20.03;86.11;95780.19;6090514;23;20022;-67
2023/09/13 01:10:00;;;;;;;5.28;4.00;;;20.70;68.60;;;19.98;84.12;95778.28;6086576;23;19917;-67
2023/09/13 01:12:25;;;;;;;4.60;3.72;;;20.60;68.70;;;19.92;85.05;95768.63;6063356;23;20018;-68
2023/09/13 01:14:51;;;;;;;5.82;3.97;;;20.70;68.60;;;19.89;85.15;95777.13;6064241;23;20010;-67
2023/09/13 01:17:20;;;;;;;5.35;4.03;;;20.60;68.80;;;19.81;86.16;95773.06;6040449;23;20053;-67
2023/09/13 01:20:05;;;;;;;7.03;4.15;;;20.50;69.30;;;19.79;88.23;95779.72;6041605;23;20333;-67
2023/09/13 01:23:08;;;;;;;6.60;4.07;;;20.60;69.40;;;19.68;88.46;95789.50;6042201;23;20019;-67
2023/09/13 01:25:59;;;;;;;5.78;4.05;;;20.30;69.90;;;19.62;89.19;95792.38;6087467;23;20086;-66
2023/09/13 01:28:39;;;;;;;6.00;4.30;;;20.30;70.40;;;19.58;89.37;95790.22;6044943;23;20348;-67
2023/09/13 01:31:07;;;;;;;5.20;3.92;;;20.30;70.30;;;19.53;88.49;95782.19;6043528;23;20101;-68
2023/09/13 01:33:33;;;;;;;6.45;4.60;;;20.20;70.60;;;19.49;88.84;95783.72;6040773;23;20058;-67
2023/09/13 01:35:59;;;;;;;5.57;4.10;;;20.10;70.90;;;19.46;90.26;95786.91;6064279;23;20046;-67
2023/09/13 01:38:24;;;;;;;4.95;4.13;;;20.10;71.00;;;19.41;90.54;95778.81;6087902;23;20085;-68
2023/09/13 01:40:52;;;;;;;6.75;4.60;;;20.10;71.30;;;19.37;91.04;95774.25;6088367;23;20017;-67
2023/09/13 01:43:19;;;;;;;4.72;4.00;;;20.10;71.50;;;19.33;91.29;95776.63;6040482;23;20393;-67
2023/09/13 01:45:45;;;;;;;5.53;4.40;;;20.10;71.80;;;19.29;91.63;95775.50;6039292;23;20029;-67
2023/09/13 01:48:11;;;;;;;6.85;4.55;;;20.00;71.80;;;19.25;92.07;95774.41;6063118;23;20015;-67
2023/09/13 01:50:37;;;;;;;4.75;4.18;;;20.00;72.00;;;19.21;92.09;95768.75;6063887;23;20042;-67
2023/09/13 01:53:03;;;;;;;5.30;4.10;;;19.90;72.00;;;19.17;92.96;95775.66;6065062;23;20006;-67
2023/09/13 01:55:30;;;;;;;6.30;4.20;;;19.90;72.10;;;19.14;93.24;95767.34;6039897;23;20042;-67
2023/09/13 01:57:55;;;;;;;5.45;4.88;;;19.90;72.40;;;19.11;94.14;95773.19;6064567;23;20022;-66
2023/09/13 02:00:21;;;;;;;5.95;4.45;;;19.90;72.40;;;19.08;94.63;95784.34;6089537;23;20041;-67
2023/09/13 02:02:47;;;;;;;6.10;5.00;;;19.80;72.60;;;19.02;94.61;95791.50;6063482;23;20483;-67
2023/09/13 02:05:12;;;;;;;7.38;4.60;;;19.80;72.50;;;18.98;94.75;95787.69;6064070;23;20080;-67
2023/09/13 02:07:38;;;;;;;6.35;4.50;;;19.80;73.00;;;18.98;95.32;95791.16;6064434;23;20493;-67
2023/09/13 02:10:05;;;;;;;5.80;4.45;;;19.80;72.80;;;18.94;96.11;95792.72;6064002;23;20678;-68
2023/09/13 02:12:30;;;;;;;6.07;4.45;;;19.70;73.00;;;18.94;96.62;95783.91;6063523;23;20019;-67
2023/09/13 02:14:56;;;;;;;10.23;4.82;;;19.70;73.10;;;18.91;96.69;95798.56;6064090;23;20081;-67
2023/09/13 02:17:22;;;;;;;6.57;5.00;;;19.70;73.30;;;18.89;96.95;95792.66;6040411;23;20037;-67
2023/09/13 02:19:49;;;;;;;8.05;4.82;;;19.70;73.20;;;18.87;97.39;95800.09;6088797;23;20010;-67
2023/09/13 02:22:15;;;;;;;6.53;5.05;;;19.60;73.50;;;18.85;97.87;95801.41;6064051;23;20523;-66
2023/09/13 02:24:41;;;;;;;7.97;4.78;;;19.60;73.70;;;18.85;97.57;95812.06;6063654;23;20081;-67
2023/09/13 02:27:06;;;;;;;6.75;4.75;;;19.60;73.60;;;18.81;98.18;95817.09;6089374;23;20030;-67
2023/09/13 02:29:32;;;;;;;7.43;4.47;;;19.60;73.80;;;18.81;98.97;95819.75;6039682;23;20023;-66
2023/09/13 02:31:58;;;;;;;7.82;4.32;;;19.60;73.60;;;18.81;98.09;95811.75;6064315;23;20042;-66
2023/09/13 02:34:24;;;;;;;7.22;4.93;;;19.60;73.50;;;18.81;97.59;95814.44;6088031;23;20018;-67
2023/09/13 02:36:50;;;;;;;6.45;4.53;;;19.70;73.60;;;18.82;98.56;95826.69;6063261;23;20022;-67
2023/09/13 02:39:36;;;;;;;4.88;4.30;;;19.70;73.50;;;18.83;99.85;95830.97;6064104;23;20018;-67
2023/09/13 02:42:03;;;;;;;6.07;4.65;;;19.70;73.40;;;18.84;97.36;95832.59;6087786;23;20472;-67
2023/09/13 02:44:30;;;;;;;6.22;4.50;;;19.70;72.90;;;18.81;96.92;95833.09;6064112;23;20017;-68
2023/09/13 02:46:56;;;;;;;5.30;4.22;;;19.60;72.80;;;18.81;98.02;95824.28;6038525;23;20018;-69
2023/09/13 02:49:21;;;;;;;5.07;3.90;;;19.70;72.80;;;18.82;96.97;95833.88;6089570;23;20021;-71
2023/09/13 02:51:48;;;;;;;5.22;4.50;;;19.60;72.90;;;18.83;98.59;95836.31;6088736;23;20077;-71
2023/09/13 02:54:14;;;;;;;5.50;4.28;;;19.70;72.90;;;18.84;98.31;95837.09;6083100;23;20071;-71
2023/09/13 02:56:40;;;;;;;5.60;4.05;;;19.70;72.80;;;18.83;97.47;95833.63;6084760;23;20149;-68
2023/09/13 02:59:05;;;;;;;8.50;4.15;;;19.70;72.50;;;18.84;97.11;95847.78;6089620;23;20097;-69
2023/09/13 03:01:31;;;;;;;7.45;4.35;;;19.70;72.30;;;18.85;96.89;95850.19;6065927;23;20008;-69
2023/09/13 03:03:59;;;;;;;5.53;4.28;;;19.70;72.30;;;18.82;96.95;95845.34;6089443;23;20401;-68
2023/09/13 03:06:25;;;;;;;5.85;4.18;;;19.60;72.50;;;18.80;95.57;95847.47;6091690;23;20030;-68
2023/09/13 03:08:50;;;;;;;4.78;4.13;;;19.60;72.30;;;18.76;95.35;95851.66;6091462;23;20014;-69
2023/09/13 03:11:18;;;;;;;5.78;4.03;;;19.50;72.40;;;18.73;96.01;95849.47;6089197;23;20449;-68
2023/09/13 03:13:44;;;;;;;6.13;3.85;;;19.60;72.80;;;18.71;96.49;95848.91;6042228;23;20002;-69
2023/09/13 03:16:28;;;;;;;5.22;4.00;;;19.60;72.50;;;18.70;97.72;95852.63;6089073;23;20081;-68
2023/09/13 03:18:54;;;;;;;5.78;3.85;;;19.50;72.70;;;18.65;97.05;95845.38;6089170;23;20472;-68
2023/09/13 03:21:23;;;;;;;12.35;9.45;;;19.40;72.90;;;18.66;96.63;95840.88;6065411;23;20480;-68
2023/09/13 03:23:49;;;;;;;13.38;10.23;;;19.50;72.90;;;18.71;97.05;95840.13;6065869;23;20049;-69
2023/09/13 03:26:22;;;;;;;7.43;5.70;;;19.60;73.10;;;18.73;98.15;95830.81;6064975;23;20006;-68
2023/09/13 03:28:50;;;;;;;5.03;3.85;;;19.70;72.70;;;18.78;98.36;95832.75;6066299;23;20444;-68
2023/09/13 03:31:18;;;;;;;5.97;4.20;;;19.70;72.90;;;18.80;97.05;95830.66;6065554;23;20015;-69
2023/09/13 03:33:44;;;;;;;8.82;6.13;;;19.70;72.40;;;18.84;97.19;95832.59;6065284;23;20018;-68
2023/09/13 03:36:11;;;;;;;9.55;6.32;;;19.80;72.80;;;18.85;98.01;95831.53;6089086;23;20460;-69
2023/09/13 03:38:38;;;;;;;12.10;8.57;;;19.80;72.60;;;18.86;97.05;95830.47;6065408;23;20007;-68
2023/09/13 03:41:05;;;;;;;8.35;7.43;;;19.80;72.30;;;18.88;97.11;95828.38;6065510;23;20029;-68
2023/09/13 03:43:30;;;;;;;6.63;5.03;;;19.90;72.40;;;18.91;97.22;95822.53;6065753;23;20011;-68
2023/09/13 03:45:56;;;;;;;10.23;7.72;;;19.80;72.10;;;18.92;96.49;95815.34;6038411;23;20046;-69
2023/09/13 03:48:22;;;;;;;5.72;4.70;;;19.90;72.20;;;18.93;97.25;95825.75;6089127;23;20022;-68
2023/09/13 03:50:49;;;;;;;6.40;5.75;;;19.90;71.90;;;18.94;97.38;95821.22;6064859;23;20093;-70
2023/09/13 03:53:14;;;;;;;10.23;7.25;;;19.90;72.00;;;18.93;97.25;95820.44;6065396;23;20122;-69
2023/09/13 03:55:41;;;;;;;10.40;7.50;;;19.90;72.20;;;18.94;97.29;95819.38;6063249;23;20010;-70
2023/09/13 03:58:07;;;;;;;7.85;6.13;;;20.00;72.00;;;18.93;96.98;95815.09;6041092;23;20017;-69
2023/09/13 04:00:36;;;;;;;17.80;14.30;;;19.90;72.20;;;18.94;97.54;95811.38;6090959;23;20018;-70
2023/09/13 04:03:03;;;;;;;7.32;4.70;;;20.00;72.60;;;18.94;97.74;95819.38;6044259;23;20093;-70
2023/09/13 04:05:29;;;;;;;5.80;4.10;;;19.90;71.60;;;18.95;96.99;95812.97;6092186;23;20010;-69
2023/09/13 04:07:55;;;;;;;11.27;4.25;;;19.90;71.80;;;18.96;96.40;95808.47;6045020;23;20006;-69
2023/09/13 04:10:21;;;;;;;7.35;4.70;;;19.90;71.50;;;18.93;95.27;95816.94;6044296;23;20017;-70
2023/09/13 04:12:49;;;;;;;8.98;7.15;;;19.80;71.30;;;18.92;95.50;95826.00;6067837;23;20078;-70
2023/09/13 04:15:16;;;;;;;10.07;8.95;;;19.90;71.60;;;18.92;96.69;95832.13;6092310;23;20535;-70
2023/09/13 04:17:41;;;;;;;10.57;6.35;;;20.00;72.00;;;18.90;95.92;95828.91;6020357;23;20580;-70
2023/09/13 04:20:08;;;;;;;5.90;4.35;;;19.90;71.90;;;18.92;96.33;95840.13;6091928;23;20007;-70
2023/09/13 04:22:34;;;;;;;3.88;3.38;;;19.90;71.60;;;18.91;96.07;95835.06;6092377;23;20045;-69
2023/09/13 04:25:00;;;;;;;7.78;3.72;;;19.80;71.70;;;18.90;96.02;95847.56;6091920;23;20018;-69
2023/09/13 04:27:26;;;;;;;6.93;3.90;;;19.80;71.70;;;18.90;95.93;95844.91;6091750;23;20021;-70
2023/09/13 04:29:54;;;;;;;6.75;4.75;;;19.90;71.70;;;18.91;96.41;95846.53;6044171;23;20016;-70
2023/09/13 04:32:21;;;;;;;5.32;4.05;;;19.90;71.80;;;18.91;96.52;95856.38;6068260;23;20029;-70
2023/09/13 04:34:46;;;;;;;6.18;4.03;;;19.80;72.10;;;18.89;96.24;95851.28;6045108;23;20010;-69
2023/09/13 04:37:12;;;;;;;5.88;4.10;;;19.80;72.30;;;18.90;95.60;95858.25;6044292;23;20021;-70
2023/09/13 04:39:38;;;;;;;6.32;3.47;;;19.80;72.10;;;18.91;97.02;95859.03;6091333;23;20015;-70
2023/09/13 04:42:07;;;;;;;6.32;3.90;;;19.90;72.20;;;18.92;97.44;95861.47;6067375;23;20017;-69
2023/09/13 04:44:32;;;;;;;6.65;3.35;;;19.80;72.00;;;18.91;96.40;95861.72;6067948;23;20010;-71
2023/09/13 04:46:59;;;;;;;6.13;3.97;;;19.80;72.40;;;18.92;97.00;95860.66;6044433;23;20365;-69
2023/09/13 04:49:25;;;;;;;5.03;3.47;;;19.90;72.40;;;18.92;96.76;95869.44;6044778;23;20360;-70
2023/09/13 04:51:52;;;;;;;5.65;3.65;;;19.90;72.40;;;18.93;97.76;95859.59;6044051;23;20015;-70
2023/09/13 04:54:18;;;;;;;4.10;3.55;;;19.90;72.30;;;18.95;98.10;95863.63;6091538;23;20505;-70
2023/09/13 04:56:44;;;;;;;4.78;3.78;;;20.00;72.40;;;18.97;98.05;95858.03;6091508;23;20018;-69
2023/09/13 04:59:09;;;;;;;7.32;4.15;;;20.10;72.40;;;18.99;97.77;95861.28;6067578;23;20034;-70
2023/09/13 05:01:35;;;;;;;6.05;3.97;;;20.10;72.20;;;19.02;98.81;95866.13;6067838;23;20037;-69
2023/09/13 05:04:01;;;;;;;6.25;4.30;;;20.10;72.30;;;19.04;98.33;95863.22;6091385;23;20014;-70
2023/09/13 05:06:26;;;;;;;6.18;4.00;;;20.10;72.20;;;19.04;98.50;95864.03;6043581;23;20042;-70
2023/09/13 05:08:53;;;;;;;5.97;3.67;;;20.10;72.30;;;19.05;98.34;95875.50;6067898;23;20019;-69
2023/09/13 05:11:23;;;;;;;7.93;4.28;;;20.10;72.50;;;19.04;99.26;95868.53;6067824;23;20077;-70
2023/09/13 05:13:49;;;;;;;6.50;4.55;;;20.10;72.70;;;19.01;99.87;95880.50;6069443;23;20006;-71
2023/09/13 05:16:19;;;;;;;12.05;5.43;;;20.10;72.90;;;19.04;98.90;95884.53;6067898;23;20015;-70
2023/09/13 05:18:46;;;;;;;6.38;4.10;;;20.10;73.00;;;19.06;98.96;95887.75;6068495;23;20015;-70
2023/09/13 05:21:11;;;;;;;6.80;3.63;;;20.10;73.10;;;19.07;99.54;95879.50;6043416;23;20077;-71
2023/09/13 05:23:37;;;;;;;5.60;3.53;;;20.20;73.10;;;19.10;100.00;95886.22;6067412;23;20393;-70
2023/09/13 05:26:03;;;;;;;4.47;3.75;;;20.20;73.10;;;19.12;100.00;95884.91;6092298;23;20034;-70
2023/09/13 05:28:33;;;;;;;7.30;3.85;;;20.30;72.80;;;19.16;100.00;95898.53;6090755;23;20430;-70
2023/09/13 05:31:00;;;;;;;7.72;3.28;;;20.30;72.50;;;19.19;100.00;95901.53;6068331;23;20693;-71
2023/09/13 05:33:28;;;;;;;4.63;3.40;;;20.30;72.50;;;19.19;100.00;95908.72;6067248;23;20010;-70
2023/09/13 05:35:54;;;;;;;7.70;4.13;;;20.20;72.10;;;19.18;99.62;95912.44;6091199;23;20046;-70
2023/09/13 05:38:20;;;;;;;6.40;4.00;;;20.20;72.00;;;19.20;98.84;95927.13;6067544;23;20069;-71
2023/09/13 05:40:46;;;;;;;8.23;3.90;;;20.30;72.10;;;19.22;99.06;95929.53;6093235;23;20085;-70
2023/09/13 05:43:12;;;;;;;5.53;4.15;;;20.30;72.10;;;19.25;99.16;95931.75;6066922;23;20018;-69
2023/09/13 05:45:39;;;;;;;6.30;3.67;;;20.40;71.80;;;19.29;98.61;95932.84;6019818;23;20027;-70
2023/09/13 05:48:05;;;;;;;5.82;3.60;;;20.50;71.50;;;19.32;98.78;95932.34;6091286;23;20018;-69
2023/09/13 05:50:30;;;;;;;5.97;3.75;;;20.50;71.50;;;19.36;98.13;95924.66;6091054;23;20045;-71
2023/09/13 05:52:56;;;;;;;7.45;3.80;;;20.60;71.40;;;19.41;98.22;95930.84;6091643;23;20006;-70
2023/09/13 05:55:22;;;;;;;6.25;3.65;;;20.60;71.50;;;19.47;98.89;95932.56;6067369;23;20441;-69
2023/09/13 05:57:50;;;;;;;9.35;4.45;;;20.70;71.50;;;19.52;99.66;95931.81;6090990;23;20553;-70
2023/09/13 06:00:16;;;;;;;5.30;3.65;;;20.70;71.80;;;19.54;99.63;95937.72;6092636;23;20014;-70
2023/09/13 06:02:42;;;;;;;7.47;4.00;;;20.70;72.00;;;19.56;100.00;95939.09;6068029;23;20077;-70
2023/09/13 06:05:10;;;;;;;6.35;4.25;;;20.70;72.20;;;19.58;100.00;95949.50;6067323;23;20006;-70
2023/09/13 06:07:37;;;;;;;9.60;4.55;;;20.80;72.60;;;19.58;100.00;95936.97;6091805;23;20013;-72
2023/09/13 06:10:03;;;;;;;6.10;4.47;;;20.70;73.50;;;19.57;100.00;95948.69;6067381;23;20048;-70
2023/09/13 06:12:30;;;;;;;6.38;4.00;;;20.70;73.70;;;19.58;100.00;95949.50;6091123;23;20029;-70
2023/09/13 06:14:57;;;;;;;8.80;4.45;;;20.70;73.70;;;19.58;100.00;95947.66;6044183;23;20096;-70
2023/09/13 06:17:23;;;;;;;6.75;4.80;;;20.70;74.10;;;19.57;100.00;95946.03;6046094;23;20038;-71
2023/09/13 06:19:50;;;;;;;8.30;4.68;;;20.70;74.20;;;19.57;100.00;95937.22;6045571;23;20011;-70
2023/09/13 06:22:17;;;;;;;8.02;4.40;;;20.70;74.40;;;19.56;100.00;95935.59;6043887;23;20086;-71
2023/09/13 06:24:44;;;;;;;6.72;4.60;;;20.70;75.20;;;19.56;100.00;95936.41;6093252;23;20037;-69
2023/09/13 06:27:10;;;;;;;8.52;4.93;;;20.70;75.50;;;19.57;100.00;95938.03;6070046;23;20073;-70
2023/09/13 06:29:35;;;;;;;7.65;5.38;;;20.80;75.20;;;19.57;100.00;95927.34;6069407;23;20022;-71
2023/09/13 06:32:04;;;;;;;7.35;5.10;;;20.80;75.70;;;19.57;100.00;95929.22;6093827;23;20006;-70
2023/09/13 06:34:30;;;;;;;8.90;4.82;;;20.80;75.70;;;19.57;100.00;95927.34;6069472;23;20042;-70
2023/09/13 06:36:56;;;;;;;6.18;5.00;;;20.80;76.00;;;19.57;100.00;95932.69;6069033;23;20018;-70
2023/09/13 06:39:22;;;;;;;7.07;4.75;;;20.80;75.80;;;19.60;100.00;95933.25;6092769;23;20011;-70
2023/09/13 06:41:48;;;;;;;6.88;5.05;;;20.90;76.40;;;19.64;100.00;95947.69;6068752;23;20016;-71
2023/09/13 06:44:14;;;;;;;9.63;5.18;;;20.90;76.40;;;19.66;100.00;95945.59;6069208;23;20015;-70
2023/09/13 06:46:41;;;;;;;7.30;4.97;;;20.90;77.00;;;19.69;100.00;95948.59;6093506;23;20018;-70
2023/09/13 06:49:06;;;;;;;7.00;5.25;;;21.00;76.30;;;19.72;100.00;95947.28;6045381;23;20014;-69
2023/09/13 06:51:32;;;;;;;6.47;5.20;;;21.00;75.40;;;19.74;100.00;95953.16;6094105;23;20065;-70
2023/09/13 06:53:58;;;;;;;7.72;5.45;;;21.10;75.60;;;19.76;100.00;95946.53;6093063;23;20015;-70
2023/09/13 06:56:24;;;;;;;5.95;4.90;;;21.10;75.30;;;19.79;100.00;95961.22;6068872;23;20022;-71
2023/09/13 06:58:50;;;;;;;6.68;5.70;;;21.10;75.00;;;19.82;100.00;95947.38;6095936;23;20010;-69
2023/09/13 07:01:16;;;;;;;8.73;5.18;;;21.20;75.40;;;19.84;100.00;95963.94;6047080;23;20011;-70
2023/09/13 07:03:42;;;;;;;8.38;4.97;;;21.20;75.60;;;19.88;100.00;95965.03;6096273;23;20460;-69
2023/09/13 07:06:08;;;;;;;10.85;5.50;;;21.30;75.40;;;19.93;100.00;95967.78;6046358;23;20026;-70
2023/09/13 07:08:33;;;;;;;8.25;5.45;;;21.40;75.10;;;19.96;100.00;95964.63;6094903;23;20014;-69
2023/09/13 07:11:01;;;;;;;7.55;5.20;;;21.40;74.50;;;20.01;100.00;95963.84;6071179;23;20010;-70
2023/09/13 07:13:27;;;;;;;6.72;5.32;;;21.60;74.50;;;20.08;100.00;95961.78;6094641;23;20022;-70
2023/09/13 07:15:53;;;;;;;8.20;5.28;;;21.80;74.10;;;20.18;100.00;95965.38;6096175;23;20021;-70
2023/09/13 07:18:18;;;;;;;8.82;5.63;;;22.10;73.40;;;20.28;100.00;95974.53;6095974;23;20022;-70
2023/09/13 07:20:45;;;;;;;9.27;5.85;;;22.10;72.40;;;20.35;100.00;95975.13;6095232;23;20034;-70
2023/09/13 07:23:10;;;;;;;7.13;5.50;;;22.10;72.50;;;20.43;100.00;95974.72;6069778;23;20007;-71
2023/09/13 07:25:36;;;;;;;7.35;4.95;;;22.30;71.70;;;20.51;100.00;95974.25;6070717;23;20126;-70
2023/09/13 07:28:02;;;;;;;7.97;5.95;;;22.40;72.40;;;20.63;100.00;95974.09;6093576;23;20040;-70
2023/09/13 07:30:28;;;;;;;9.18;6.50;;;22.60;72.70;;;20.71;100.00;95971.72;6069952;23;20006;-70
2023/09/13 07:32:54;;;;;;;11.80;6.13;;;22.60;71.80;;;20.84;100.00;95983.06;6069184;23;20010;-70
2023/09/13 07:35:20;;;;;;;9.02;5.93;;;22.70;72.40;;;20.91;100.00;95976.44;6092083;23;20015;-70
2023/09/13 07:37:47;;;;;;;10.70;5.60;;;22.70;72.20;;;20.96;100.00;95971.09;6069032;23;20011;-71
2023/09/13 07:40:13;;;;;;;8.75;5.57;;;22.70;72.10;;;21.04;100.00;95975.16;6068602;23;20010;-69
2023/09/13 07:42:38;;;;;;;6.97;5.47;;;22.80;71.80;;;21.14;100.00;95977.91;6068131;23;20057;-70
2023/09/13 07:45:06;;;;;;;8.77;6.50;;;23.10;71.00;;;21.31;100.00;95978.59;6092582;23;20077;-70
2023/09/13 07:47:32;;;;;;;8.27;6.40;;;23.40;70.60;;;21.47;100.00;95982.13;6068493;23;20026;-70
2023/09/13 07:49:58;;;;;;;7.47;5.72;;;23.80;69.20;;;21.63;100.00;95985.69;6069602;23;20032;-68
2023/09/13 07:52:24;;;;;;;7.45;5.95;;;23.90;68.20;;;21.81;100.00;95981.75;6092743;23;20094;-70
2023/09/13 07:54:51;;;;;;;8.10;6.07;;;24.00;67.50;;;21.98;100.00;95985.03;6093390;23;20027;-71
2023/09/13 07:57:17;;;;;;;9.93;5.72;;;24.10;67.60;;;22.16;100.00;95986.41;6070095;23;20018;-69
2023/09/13 07:59:43;;;;;;;6.30;5.47;;;24.40;67.20;;;22.31;100.00;95987.25;6094434;23;20058;-70
2023/09/13 08:02:10;;;;;;;7.60;5.65;;;24.40;65.70;;;22.45;98.08;95990.25;6044219;23;20042;-70
2023/09/13 08:04:36;;;;;;;8.63;5.60;;;24.80;64.60;;;22.65;97.64;95985.97;6069586;23;20519;-70
2023/09/13 08:07:02;;;;;;;7.53;5.78;;;25.10;63.90;;;22.84;96.16;95984.38;6069097;23;20019;-70
2023/09/13 08:09:28;;;;;;;9.65;5.38;;;25.30;63.30;;;23.06;95.42;95987.56;6044958;23;20500;-70
2023/09/13 08:11:54;;;;;;;8.30;5.82;;;25.50;63.00;;;23.23;92.27;95995.31;6092651;23;20071;-69
2023/09/13 08:14:20;;;;;;;7.88;5.32;;;25.60;61.30;;;23.37;90.76;95995.56;6068893;23;20013;-70
2023/09/13 08:16:46;;;;;;;8.65;5.50;;;26.00;60.50;;;23.66;90.72;96001.97;6092870;23;20011;-71
2023/09/13 08:19:11;;;;;;;6.70;5.07;;;27.00;59.60;;;23.97;88.06;96002.63;6068756;23;20023;-70
2023/09/13 08:21:38;;;;;;;6.25;4.82;;;27.50;55.70;;;24.24;86.33;96013.00;6091961;23;20014;-71
2023/09/13 08:24:04;;;;;;;6.45;5.03;;;27.60;55.90;;;24.39;86.08;96012.91;6093963;23;20018;-71
2023/09/13 08:26:30;;;;;;;10.52;5.88;;;26.90;58.20;;;24.42;85.61;96022.31;6067648;23;20101;-71
2023/09/13 08:28:57;;;;;;;9.95;5.82;;;26.50;59.50;;;24.40;85.57;96021.78;6069111;23;20006;-70
2023/09/13 08:31:24;;;;;;;8.85;5.50;;;26.40;60.70;;;24.35;85.23;96019.13;6068385;23;20011;-71
2023/09/13 08:33:50;;;;;;;6.55;5.22;;;26.10;61.10;;;24.28;84.59;96014.06;6069333;23;20101;-71
2023/09/13 08:36:17;;;;;;;8.95;5.70;;;25.90;61.30;;;24.22;84.30;96012.47;6091607;23;20014;-70
2023/09/13 08:38:43;;;;;;;8.23;5.72;;;25.80;60.90;;;24.13;83.90;96014.13;6093534;23;20413;-70
2023/09/13 08:41:08;;;;;;;6.80;6.10;;;25.60;61.60;;;24.06;84.04;96019.00;6093034;23;20006;-71
2023/09/13 08:43:36;;;;;;;12.50;9.48;;;25.50;62.60;;;24.03;84.71;96022.22;6068760;23;20081;-71
2023/09/13 08:46:02;;;;;;;10.48;6.25;;;25.50;62.70;;;23.94;84.31;96018.50;6044217;23;20022;-69
2023/09/13 08:48:28;;;;;;;9.07;5.80;;;25.40;62.60;;;23.87;84.58;96028.75;6067387;23;20465;-70
2023/09/13 08:50:54;;;;;;;8.52;5.78;;;25.30;63.30;;;23.76;85.23;96034.16;6044158;23;20014;-70
2023/09/13 08:53:19;;;;;;;8.73;5.95;;;25.10;64.00;;;23.66;85.51;96036.88;6067692;23;20006;-71
2023/09/13 08:55:46;;;;;;;7.63;6.07;;;25.00;63.80;;;23.58;85.11;96031.25;6068528;23;20009;-71
2023/09/13 08:58:11;;;;;;;8.88;5.65;;;24.80;63.70;;;23.46;85.93;96039.56;6044249;23;20385;-70
2023/09/13 09:00:38;;;;;;;6.18;5.57;;;24.70;64.50;;;23.39;86.02;96044.44;6068252;23;20018;-70
2023/09/13 09:03:05;;;;;;;5.72;5.13;;;24.70;64.60;;;23.33;86.71;96048.19;6044847;23;20018;-70
2023/09/13 09:05:32;;;;;;;7.88;6.30;;;24.70;64.90;;;23.28;85.48;96042.81;6091560;23;20036;-71
2023/09/13 09:07:58;;;;;;;7.00;5.70;;;24.60;63.70;;;23.23;85.29;96036.38;6044536;23;20033;-71
2023/09/13 09:10:24;;;;;;;6.20;5.57;;;24.70;63.90;;;23.19;85.09;96043.38;6043696;23;20014;-71
2023/09/13 09:12:52;;;;;;;6.40;5.00;;;24.60;63.90;;;23.20;85.72;96042.28;6067882;23;20102;-70
2023/09/13 09:15:18;;;;;;;8.45;6.18;;;24.70;64.20;;;23.22;84.30;96039.34;6021230;23;20400;-70
2023/09/13 09:17:47;;;;;;;6.85;5.45;;;24.60;62.90;;;23.25;84.72;96038.78;6043868;23;20011;-70
2023/09/13 09:20:13;;;;;;;7.43;5.63;;;24.80;63.40;;;23.28;85.33;96038.25;6068138;23;20003;-69
2023/09/13 09:22:39;;;;;;;7.43;6.00;;;24.90;63.50;;;23.33;84.30;96032.91;6044305;23;20373;-70
2023/09/13 09:25:14;;;;;;;10.57;7.85;;;25.00;62.30;;;23.43;84.02;96024.00;6044170;23;20050;-70
2023/09/13 09:27:40;;;;;;;10.02;6.32;;;25.20;62.00;;;23.51;83.66;96021.56;6044571;23;20363;-70
2023/09/13 09:30:07;;;;;;;6.70;5.65;;;25.50;61.70;;;23.66;83.98;96025.31;6067979;23;20037;-69
2023/09/13 09:32:36;;;;;;;13.60;5.85;;;25.70;61.30;;;23.81;83.16;96023.41;6043415;23;20018;-70
2023/09/13 09:35:05;;;;;;;7.22;5.43;;;26.10;60.10;;;24.11;83.13;96021.66;6044829;23;20099;-70
2023/09/13 09:37:32;;;;;;;6.93;4.80;;;26.70;59.50;;;24.36;82.75;96026.91;6067120;23;20018;-70
2023/09/13 09:39:58;;;;;;;7.53;5.55;;;26.80;58.60;;;24.59;79.97;96025.44;6043752;23;20093;-71
2023/09/13 09:42:24;;;;;;;7.25;5.60;;;27.00;56.50;;;24.68;78.82;96022.97;6090748;23;20329;-70
2023/09/13 09:44:55;;;;;;;9.70;5.60;;;26.90;56.70;;;24.83;76.67;96019.34;6067239;23;20018;-70
2023/09/13 09:47:20;;;;;;;;;;;27.10;55.90;;;24.94;74.43;96010.13;6068657;23;20017;-70
2023/09/13 09:49:47;;;;;;;6.80;5.50;;;27.20;55.20;;;25.12;75.87;96016.69;6092286;23;20246;-69
2023/09/13 09:52:14;;;;;;;5.97;5.38;;;27.40;54.40;;;25.29;74.98;96019.78;6045921;23;20019;-71
2023/09/13 09:54:40;;;;;;;8.05;5.40;;;27.80;54.40;;;25.48;74.67;96015.28;6023965;23;20010;-70
2023/09/13 09:57:06;;;;;;;9.30;5.28;;;28.10;53.40;;;25.69;73.60;96020.47;6047637;23;20010;-72
2023/09/13 09:59:33;;;;;;;7.10;5.43;;;28.20;52.90;;;25.80;71.79;96012.00;6070782;23;20014;-71
2023/09/13 10:02:00;;;;;;;9.38;5.50;;;28.20;52.30;;;25.80;71.34;96008.47;6071236;23;20026;-70
2023/09/13 10:04:26;;;;;;;6.63;5.70;;;28.10;52.90;;;25.80;71.19;96011.16;6093921;23;20010;-72
2023/09/13 10:07:03;;;;;;;8.27;5.32;;;28.10;53.00;;;25.93;71.82;96022.06;6069913;23;20467;-69
2023/09/13 10:09:43;;;;;;;5.80;4.57;;;28.40;54.50;;;26.04;68.68;96011.97;6068920;23;20018;-70
2023/09/13 10:12:11;;;;;;;6.15;4.80;;;28.40;52.80;;;26.10;69.96;96021.59;6068541;23;20109;-70
2023/09/13 10:14:39;;;;;;;6.60;5.05;;;28.40;51.90;;;26.29;69.85;96016.22;6067833;23;20464;-70
2023/09/13 10:17:05;;;;;;;7.20;5.30;;;29.10;51.20;;;26.82;68.96;96016.81;6044088;23;20045;-69